sensor_id;sensor_type;location;lat;lon;timestamp;temperature;humidity
14487;DHT22;7329;50.866;4.366;2022-07-22T00:00:19;23.80;99.90
14487;DHT22;7329;50.866;4.366;2022-07-22T00:02:22;23.80;99.90
14487;DHT22;7329;50.866;4.366;2022-07-22T00:04:25;23.80;99.90
14487;DHT22;7329;50.866;4.366;2022-07-22T00:06:28;23.80;99.90
14487;DHT22;7329;50.866;4.366;2022-07-22T00:08:31;23.80;99.90
14487;DHT22;7329;50.866;4.366;2022-07-22T00:10:34;23.80;99.90
14487;DHT22;7329;50.866;4.366;2022-07-22T00:12:37;23.70;99.90
14487;DHT22;7329;50.866;4.366;2022-07-22T00:14:40;23.80;99.90
14487;DHT22;7329;50.866;4.366;2022-07-22T00:16:42;23.80;99.90
14487;DHT22;7329;50.866;4.366;2022-07-22T00:18:45;23.70;99.90
14487;DHT22;7329;50.866;4.366;2022-07-22T00:20:48;23.80;99.90
14487;DHT22;7329;50.866;4.366;2022-07-22T00:22:51;23.80;99.90
14487;DHT22;7329;50.866;4.366;2022-07-22T00:24:53;23.80;99.90
14487;DHT22;7329;50.866;4.366;2022-07-22T00:26:55;23.80;99.90
14487;DHT22;7329;50.866;4.366;2022-07-22T00:28:58;23.70;99.90
14487;DHT22;7329;50.866;4.366;2022-07-22T00:31:00;23.70;99.90
14487;DHT22;7329;50.866;4.366;2022-07-22T00:33:03;23.70;99.90
14487;DHT22;7329;50.866;4.366;2022-07-22T00:35:06;23.70;99.90
14487;DHT22;7329;50.866;4.366;2022-07-22T00:37:10;23.70;99.90
14487;DHT22;7329;50.866;4.366;2022-07-22T00:39:12;23.70;99.90
14487;DHT22;7329;50.866;4.366;2022-07-22T00:41:16;23.70;99.90
14487;DHT22;7329;50.866;4.366;2022-07-22T00:43:18;23.70;99.90
14487;DHT22;7329;50.866;4.366;2022-07-22T00:45:20;23.70;99.90
14487;DHT22;7329;50.866;4.366;2022-07-22T00:47:23;23.70;99.90
14487;DHT22;7329;50.866;4.366;2022-07-22T00:49:25;23.70;99.90
14487;DHT22;7329;50.866;4.366;2022-07-22T00:51:28;23.70;99.90
14487;DHT22;7329;50.866;4.366;2022-07-22T00:53:32;23.70;99.90
14487;DHT22;7329;50.866;4.366;2022-07-22T00:55:35;23.70;99.90
14487;DHT22;7329;50.866;4.366;2022-07-22T00:57:38;23.70;99.90
14487;DHT22;7329;50.866;4.366;2022-07-22T00:59:40;23.70;99.90
14487;DHT22;7329;50.866;4.366;2022-07-22T01:01:43;23.70;99.90
14487;DHT22;7329;50.866;4.366;2022-07-22T01:03:45;23.70;99.90
14487;DHT22;7329;50.866;4.366;2022-07-22T01:05:48;23.70;99.90
14487;DHT22;7329;50.866;4.366;2022-07-22T01:07:50;23.70;99.90
14487;DHT22;7329;50.866;4.366;2022-07-22T01:09:54;23.70;99.90
14487;DHT22;7329;50.866;4.366;2022-07-22T01:11:56;23.70;99.90
14487;DHT22;7329;50.866;4.366;2022-07-22T01:13:58;23.70;99.90
14487;DHT22;7329;50.866;4.366;2022-07-22T01:16:00;23.70;99.90
14487;DHT22;7329;50.866;4.366;2022-07-22T01:18:03;23.70;99.90
14487;DHT22;7329;50.866;4.366;2022-07-22T01:20:08;23.70;99.90
14487;DHT22;7329;50.866;4.366;2022-07-22T01:22:10;23.60;99.90
14487;DHT22;7329;50.866;4.366;2022-07-22T01:24:13;23.70;99.90
14487;DHT22;7329;50.866;4.366;2022-07-22T01:26:15;23.60;99.90
14487;DHT22;7329;50.866;4.366;2022-07-22T01:28:18;23.60;99.90
14487;DHT22;7329;50.866;4.366;2022-07-22T01:30:21;23.60;99.90
14487;DHT22;7329;50.866;4.366;2022-07-22T01:32:23;23.60;99.90
14487;DHT22;7329;50.866;4.366;2022-07-22T01:34:25;23.60;99.90
14487;DHT22;7329;50.866;4.366;2022-07-22T01:36:29;23.70;99.90
14487;DHT22;7329;50.866;4.366;2022-07-22T01:38:32;23.60;99.90
14487;DHT22;7329;50.866;4.366;2022-07-22T01:40:34;23.60;99.90
14487;DHT22;7329;50.866;4.366;2022-07-22T01:42:36;23.60;99.90
14487;DHT22;7329;50.866;4.366;2022-07-22T01:44:39;23.60;99.90
14487;DHT22;7329;50.866;4.366;2022-07-22T01:46:41;23.60;99.90
14487;DHT22;7329;50.866;4.366;2022-07-22T01:48:43;23.60;99.90
14487;DHT22;7329;50.866;4.366;2022-07-22T01:50:46;23.60;99.90
14487;DHT22;7329;50.866;4.366;2022-07-22T01:52:50;23.60;99.90
14487;DHT22;7329;50.866;4.366;2022-07-22T01:54:52;23.50;99.90
14487;DHT22;7329;50.866;4.366;2022-07-22T01:56:55;23.60;99.90
14487;DHT22;7329;50.866;4.366;2022-07-22T01:58:57;23.60;99.90
14487;DHT22;7329;50.866;4.366;2022-07-22T02:00:59;23.60;99.90
14487;DHT22;7329;50.866;4.366;2022-07-22T02:03:02;23.60;99.90
14487;DHT22;7329;50.866;4.366;2022-07-22T02:05:05;23.60;99.90
14487;DHT22;7329;50.866;4.366;2022-07-22T02:07:08;23.60;99.90
14487;DHT22;7329;50.866;4.366;2022-07-22T02:09:12;23.60;99.90
14487;DHT22;7329;50.866;4.366;2022-07-22T02:11:15;23.60;99.90
14487;DHT22;7329;50.866;4.366;2022-07-22T02:13:18;23.60;99.90
14487;DHT22;7329;50.866;4.366;2022-07-22T02:15:21;23.60;99.90
14487;DHT22;7329;50.866;4.366;2022-07-22T02:17:23;23.60;99.90
14487;DHT22;7329;50.866;4.366;2022-07-22T02:19:25;23.60;99.90
14487;DHT22;7329;50.866;4.366;2022-07-22T02:21:28;23.50;99.90
14487;DHT22;7329;50.866;4.366;2022-07-22T02:23:30;23.50;99.90
14487;DHT22;7329;50.866;4.366;2022-07-22T02:25:34;23.50;99.90
14487;DHT22;7329;50.866;4.366;2022-07-22T02:27:36;23.50;99.90
14487;DHT22;7329;50.866;4.366;2022-07-22T02:29:39;23.50;99.90
14487;DHT22;7329;50.866;4.366;2022-07-22T02:31:41;23.60;99.90
14487;DHT22;7329;50.866;4.366;2022-07-22T02:33:44;23.50;99.90
14487;DHT22;7329;50.866;4.366;2022-07-22T02:35:46;23.50;99.90
14487;DHT22;7329;50.866;4.366;2022-07-22T02:37:49;23.50;99.90
14487;DHT22;7329;50.866;4.366;2022-07-22T02:39:51;23.50;99.90
14487;DHT22;7329;50.866;4.366;2022-07-22T02:41:55;23.50;99.90
14487;DHT22;7329;50.866;4.366;2022-07-22T02:43:57;23.50;99.90
14487;DHT22;7329;50.866;4.366;2022-07-22T02:45:59;23.50;99.90
14487;DHT22;7329;50.866;4.366;2022-07-22T02:48:02;23.50;99.90
14487;DHT22;7329;50.866;4.366;2022-07-22T02:50:05;23.50;99.90
14487;DHT22;7329;50.866;4.366;2022-07-22T02:52:07;23.50;99.90
14487;DHT22;7329;50.866;4.366;2022-07-22T02:54:09;23.50;99.90
14487;DHT22;7329;50.866;4.366;2022-07-22T02:56:12;23.50;99.90
14487;DHT22;7329;50.866;4.366;2022-07-22T02:58:15;23.50;99.90
14487;DHT22;7329;50.866;4.366;2022-07-22T03:00:18;23.50;99.90
14487;DHT22;7329;50.866;4.366;2022-07-22T03:02:20;23.50;99.90
14487;DHT22;7329;50.866;4.366;2022-07-22T03:04:22;23.50;99.90
14487;DHT22;7329;50.866;4.366;2022-07-22T03:06:25;23.50;99.90
14487;DHT22;7329;50.866;4.366;2022-07-22T03:08:27;23.50;99.90
14487;DHT22;7329;50.866;4.366;2022-07-22T03:10:29;23.40;99.90
14487;DHT22;7329;50.866;4.366;2022-07-22T03:12:31;23.50;99.90
14487;DHT22;7329;50.866;4.366;2022-07-22T03:14:35;23.40;99.90
14487;DHT22;7329;50.866;4.366;2022-07-22T03:16:38;23.50;99.90
14487;DHT22;7329;50.866;4.366;2022-07-22T03:18:40;23.50;99.90
14487;DHT22;7329;50.866;4.366;2022-07-22T03:20:42;23.50;99.90
14487;DHT22;7329;50.866;4.366;2022-07-22T03:22:44;23.50;99.90
14487;DHT22;7329;50.866;4.366;2022-07-22T03:24:47;23.40;99.90
14487;DHT22;7329;50.866;4.366;2022-07-22T03:26:49;23.40;99.90
14487;DHT22;7329;50.866;4.366;2022-07-22T03:28:52;23.50;99.90
14487;DHT22;7329;50.866;4.366;2022-07-22T03:30:55;23.40;99.90
14487;DHT22;7329;50.866;4.366;2022-07-22T03:32:58;23.40;99.90
14487;DHT22;7329;50.866;4.366;2022-07-22T03:35:00;23.40;99.90
14487;DHT22;7329;50.866;4.366;2022-07-22T03:37:02;23.40;99.90
14487;DHT22;7329;50.866;4.366;2022-07-22T03:39:05;23.40;99.90
14487;DHT22;7329;50.866;4.366;2022-07-22T03:41:07;23.40;99.90
14487;DHT22;7329;50.866;4.366;2022-07-22T03:43:09;23.40;99.90
14487;DHT22;7329;50.866;4.366;2022-07-22T03:45:12;23.40;99.90
14487;DHT22;7329;50.866;4.366;2022-07-22T03:47:18;23.40;99.90
14487;DHT22;7329;50.866;4.366;2022-07-22T03:49:21;23.40;99.90
14487;DHT22;7329;50.866;4.366;2022-07-22T03:51:23;23.40;99.90
14487;DHT22;7329;50.866;4.366;2022-07-22T03:53:25;23.40;99.90
14487;DHT22;7329;50.866;4.366;2022-07-22T03:55:28;23.40;99.90
14487;DHT22;7329;50.866;4.366;2022-07-22T03:57:30;23.40;99.90
14487;DHT22;7329;50.866;4.366;2022-07-22T03:59:33;23.40;99.90
14487;DHT22;7329;50.866;4.366;2022-07-22T04:01:35;23.40;99.90
14487;DHT22;7329;50.866;4.366;2022-07-22T04:03:39;23.40;99.90
14487;DHT22;7329;50.866;4.366;2022-07-22T04:05:41;23.40;99.90
14487;DHT22;7329;50.866;4.366;2022-07-22T04:07:43;23.40;99.90
14487;DHT22;7329;50.866;4.366;2022-07-22T04:09:45;23.40;99.90
14487;DHT22;7329;50.866;4.366;2022-07-22T04:11:48;23.40;99.90
14487;DHT22;7329;50.866;4.366;2022-07-22T04:13:51;23.40;99.90
14487;DHT22;7329;50.866;4.366;2022-07-22T04:15:53;23.40;99.90
14487;DHT22;7329;50.866;4.366;2022-07-22T04:17:56;23.40;99.90
14487;DHT22;7329;50.866;4.366;2022-07-22T04:20:00;23.40;99.90
14487;DHT22;7329;50.866;4.366;2022-07-22T04:22:02;23.40;99.90
14487;DHT22;7329;50.866;4.366;2022-07-22T04:24:05;23.40;99.90
14487;DHT22;7329;50.866;4.366;2022-07-22T04:26:08;23.40;99.90
14487;DHT22;7329;50.866;4.366;2022-07-22T04:28:10;23.40;99.90
14487;DHT22;7329;50.866;4.366;2022-07-22T04:30:12;23.40;99.90
14487;DHT22;7329;50.866;4.366;2022-07-22T04:32:15;23.40;99.90
14487;DHT22;7329;50.866;4.366;2022-07-22T04:34:17;23.40;99.90
14487;DHT22;7329;50.866;4.366;2022-07-22T04:36:21;23.40;99.90
14487;DHT22;7329;50.866;4.366;2022-07-22T04:38:23;23.30;99.90
14487;DHT22;7329;50.866;4.366;2022-07-22T04:40:25;23.30;99.90
14487;DHT22;7329;50.866;4.366;2022-07-22T04:42:28;23.40;99.90
14487;DHT22;7329;50.866;4.366;2022-07-22T04:44:30;23.40;99.90
14487;DHT22;7329;50.866;4.366;2022-07-22T04:46:32;23.40;99.90
14487;DHT22;7329;50.866;4.366;2022-07-22T04:48:34;23.30;99.90
14487;DHT22;7329;50.866;4.366;2022-07-22T04:50:37;23.30;99.90
14487;DHT22;7329;50.866;4.366;2022-07-22T04:52:41;23.40;99.90
14487;DHT22;7329;50.866;4.366;2022-07-22T04:54:43;23.30;99.90
14487;DHT22;7329;50.866;4.366;2022-07-22T04:56:45;23.40;99.90
14487;DHT22;7329;50.866;4.366;2022-07-22T04:58:47;23.40;99.90
14487;DHT22;7329;50.866;4.366;2022-07-22T05:00:50;23.30;99.90
14487;DHT22;7329;50.866;4.366;2022-07-22T05:02:52;23.40;99.90
14487;DHT22;7329;50.866;4.366;2022-07-22T05:04:55;23.40;99.90
14487;DHT22;7329;50.866;4.366;2022-07-22T05:06:57;23.30;99.90
14487;DHT22;7329;50.866;4.366;2022-07-22T05:09:00;23.40;99.90
14487;DHT22;7329;50.866;4.366;2022-07-22T05:11:03;23.40;99.90
14487;DHT22;7329;50.866;4.366;2022-07-22T05:13:05;23.40;99.90
14487;DHT22;7329;50.866;4.366;2022-07-22T05:15:08;23.30;99.90
14487;DHT22;7329;50.866;4.366;2022-07-22T05:17:11;23.40;99.90
14487;DHT22;7329;50.866;4.366;2022-07-22T05:19:13;23.40;99.90
14487;DHT22;7329;50.866;4.366;2022-07-22T05:21:16;23.40;99.90
14487;DHT22;7329;50.866;4.366;2022-07-22T05:23:18;23.30;99.90
14487;DHT22;7329;50.866;4.366;2022-07-22T05:25:21;23.40;99.90
14487;DHT22;7329;50.866;4.366;2022-07-22T05:27:24;23.40;99.90
14487;DHT22;7329;50.866;4.366;2022-07-22T05:29:26;23.30;99.90
14487;DHT22;7329;50.866;4.366;2022-07-22T05:31:28;23.40;99.90
14487;DHT22;7329;50.866;4.366;2022-07-22T05:33:31;23.40;99.90
14487;DHT22;7329;50.866;4.366;2022-07-22T05:35:33;23.40;99.90
14487;DHT22;7329;50.866;4.366;2022-07-22T05:37:35;23.40;99.90
14487;DHT22;7329;50.866;4.366;2022-07-22T05:39:37;23.40;99.90
14487;DHT22;7329;50.866;4.366;2022-07-22T05:41:41;23.40;99.90
14487;DHT22;7329;50.866;4.366;2022-07-22T05:43:43;23.40;99.90
14487;DHT22;7329;50.866;4.366;2022-07-22T05:45:46;23.40;99.90
14487;DHT22;7329;50.866;4.366;2022-07-22T05:47:48;23.40;99.90
14487;DHT22;7329;50.866;4.366;2022-07-22T05:49:50;23.40;99.90
14487;DHT22;7329;50.866;4.366;2022-07-22T05:51:53;23.40;99.90
14487;DHT22;7329;50.866;4.366;2022-07-22T05:53:55;23.40;99.90
14487;DHT22;7329;50.866;4.366;2022-07-22T05:55:57;23.40;99.90
14487;DHT22;7329;50.866;4.366;2022-07-22T05:58:01;23.40;99.90
14487;DHT22;7329;50.866;4.366;2022-07-22T06:00:04;23.40;99.90
14487;DHT22;7329;50.866;4.366;2022-07-22T06:02:07;23.40;99.90
14487;DHT22;7329;50.866;4.366;2022-07-22T06:04:09;23.40;99.90
14487;DHT22;7329;50.866;4.366;2022-07-22T06:06:12;23.40;99.90
14487;DHT22;7329;50.866;4.366;2022-07-22T06:08:14;23.40;99.90
14487;DHT22;7329;50.866;4.366;2022-07-22T06:10:16;23.40;99.90
14487;DHT22;7329;50.866;4.366;2022-07-22T06:12:18;23.40;99.90
14487;DHT22;7329;50.866;4.366;2022-07-22T06:14:22;23.40;99.90
14487;DHT22;7329;50.866;4.366;2022-07-22T06:16:24;23.40;99.90
14487;DHT22;7329;50.866;4.366;2022-07-22T06:18:27;23.40;99.90
14487;DHT22;7329;50.866;4.366;2022-07-22T06:20:29;23.50;99.90
14487;DHT22;7329;50.866;4.366;2022-07-22T06:22:31;23.50;99.90
14487;DHT22;7329;50.866;4.366;2022-07-22T06:24:34;23.50;99.90
14487;DHT22;7329;50.866;4.366;2022-07-22T06:26:36;23.40;99.90
14487;DHT22;7329;50.866;4.366;2022-07-22T06:28:39;23.40;99.90
14487;DHT22;7329;50.866;4.366;2022-07-22T06:30:42;23.50;99.90
14487;DHT22;7329;50.866;4.366;2022-07-22T06:32:44;23.50;99.90
14487;DHT22;7329;50.866;4.366;2022-07-22T06:34:47;23.50;99.90
14487;DHT22;7329;50.866;4.366;2022-07-22T06:36:49;23.50;99.90
14487;DHT22;7329;50.866;4.366;2022-07-22T06:38:51;23.50;99.90
14487;DHT22;7329;50.866;4.366;2022-07-22T06:40:54;23.50;99.90
14487;DHT22;7329;50.866;4.366;2022-07-22T06:42:56;23.50;99.90
14487;DHT22;7329;50.866;4.366;2022-07-22T06:44:58;23.50;99.90
14487;DHT22;7329;50.866;4.366;2022-07-22T06:47:02;23.50;99.90
14487;DHT22;7329;50.866;4.366;2022-07-22T06:49:04;23.50;99.90
14487;DHT22;7329;50.866;4.366;2022-07-22T06:51:07;23.50;99.90
14487;DHT22;7329;50.866;4.366;2022-07-22T06:53:10;23.50;99.90
14487;DHT22;7329;50.866;4.366;2022-07-22T06:55:12;23.50;99.90
14487;DHT22;7329;50.866;4.366;2022-07-22T06:57:15;23.50;99.90
14487;DHT22;7329;50.866;4.366;2022-07-22T06:59:17;23.50;99.90
14487;DHT22;7329;50.866;4.366;2022-07-22T07:01:19;23.60;99.90
14487;DHT22;7329;50.866;4.366;2022-07-22T07:03:23;23.60;99.90
14487;DHT22;7329;50.866;4.366;2022-07-22T07:05:26;23.60;99.90
14487;DHT22;7329;50.866;4.366;2022-07-22T07:07:29;23.60;99.90
14487;DHT22;7329;50.866;4.366;2022-07-22T07:09:32;23.60;99.90
14487;DHT22;7329;50.866;4.366;2022-07-22T07:11:34;23.60;99.90
14487;DHT22;7329;50.866;4.366;2022-07-22T07:13:36;23.60;99.90
14487;DHT22;7329;50.866;4.366;2022-07-22T07:15:39;23.60;99.90
14487;DHT22;7329;50.866;4.366;2022-07-22T07:17:41;23.60;99.90
14487;DHT22;7329;50.866;4.366;2022-07-22T07:19:45;23.60;99.90
14487;DHT22;7329;50.866;4.366;2022-07-22T07:21:47;23.60;99.90
14487;DHT22;7329;50.866;4.366;2022-07-22T07:23:49;23.60;99.90
14487;DHT22;7329;50.866;4.366;2022-07-22T07:25:52;23.60;99.90
14487;DHT22;7329;50.866;4.366;2022-07-22T07:27:54;23.70;99.90
14487;DHT22;7329;50.866;4.366;2022-07-22T07:29:56;23.60;99.90
14487;DHT22;7329;50.866;4.366;2022-07-22T07:31:59;23.70;99.90
14487;DHT22;7329;50.866;4.366;2022-07-22T07:34:01;23.60;99.90
14487;DHT22;7329;50.866;4.366;2022-07-22T07:36:06;23.70;99.90
14487;DHT22;7329;50.866;4.366;2022-07-22T07:38:08;23.70;99.90
14487;DHT22;7329;50.866;4.366;2022-07-22T07:40:11;23.70;99.90
14487;DHT22;7329;50.866;4.366;2022-07-22T07:42:13;23.70;99.90
14487;DHT22;7329;50.866;4.366;2022-07-22T07:44:19;23.70;99.90
14487;DHT22;7329;50.866;4.366;2022-07-22T07:46:21;23.70;99.90
14487;DHT22;7329;50.866;4.366;2022-07-22T07:48:23;23.70;99.90
14487;DHT22;7329;50.866;4.366;2022-07-22T07:50:26;23.70;99.90
14487;DHT22;7329;50.866;4.366;2022-07-22T07:52:29;23.70;99.90
14487;DHT22;7329;50.866;4.366;2022-07-22T07:54:32;23.70;99.90
14487;DHT22;7329;50.866;4.366;2022-07-22T07:56:35;23.70;99.90
14487;DHT22;7329;50.866;4.366;2022-07-22T07:58:37;23.70;99.90
14487;DHT22;7329;50.866;4.366;2022-07-22T08:00:40;23.70;99.90
14487;DHT22;7329;50.866;4.366;2022-07-22T08:02:43;23.80;99.90
14487;DHT22;7329;50.866;4.366;2022-07-22T08:04:47;23.80;99.90
14487;DHT22;7329;50.866;4.366;2022-07-22T08:06:49;23.80;99.90
14487;DHT22;7329;50.866;4.366;2022-07-22T08:08:52;23.70;99.90
14487;DHT22;7329;50.866;4.366;2022-07-22T08:10:55;23.80;99.90
14487;DHT22;7329;50.866;4.366;2022-07-22T08:12:58;23.80;99.90
14487;DHT22;7329;50.866;4.366;2022-07-22T08:15:00;23.80;99.90
14487;DHT22;7329;50.866;4.366;2022-07-22T08:17:02;23.80;99.90
14487;DHT22;7329;50.866;4.366;2022-07-22T08:19:05;23.80;99.90
14487;DHT22;7329;50.866;4.366;2022-07-22T08:21:07;23.80;99.90
14487;DHT22;7329;50.866;4.366;2022-07-22T08:23:10;23.80;99.90
14487;DHT22;7329;50.866;4.366;2022-07-22T08:25:13;23.80;99.90
14487;DHT22;7329;50.866;4.366;2022-07-22T08:27:16;23.80;99.90
14487;DHT22;7329;50.866;4.366;2022-07-22T08:29:18;23.80;99.90
14487;DHT22;7329;50.866;4.366;2022-07-22T08:31:20;23.80;99.90
14487;DHT22;7329;50.866;4.366;2022-07-22T08:33:23;23.80;99.90
14487;DHT22;7329;50.866;4.366;2022-07-22T08:35:27;23.80;99.90
14487;DHT22;7329;50.866;4.366;2022-07-22T08:37:29;23.80;99.90
14487;DHT22;7329;50.866;4.366;2022-07-22T08:39:31;23.80;99.90
14487;DHT22;7329;50.866;4.366;2022-07-22T08:41:37;23.90;99.90
14487;DHT22;7329;50.866;4.366;2022-07-22T08:43:40;23.90;99.90
14487;DHT22;7329;50.866;4.366;2022-07-22T08:45:45;23.80;99.90
14487;DHT22;7329;50.866;4.366;2022-07-22T08:47:51;23.90;99.90
14487;DHT22;7329;50.866;4.366;2022-07-22T08:49:53;23.80;99.90
14487;DHT22;7329;50.866;4.366;2022-07-22T08:51:56;23.90;99.90
14487;DHT22;7329;50.866;4.366;2022-07-22T08:53:58;23.90;99.90
14487;DHT22;7329;50.866;4.366;2022-07-22T08:56:01;23.80;99.90
14487;DHT22;7329;50.866;4.366;2022-07-22T08:58:04;23.90;99.90
14487;DHT22;7329;50.866;4.366;2022-07-22T09:00:10;23.90;99.90
14487;DHT22;7329;50.866;4.366;2022-07-22T09:02:12;23.90;99.90
14487;DHT22;7329;50.866;4.366;2022-07-22T09:04:15;23.90;99.90
14487;DHT22;7329;50.866;4.366;2022-07-22T09:06:18;23.90;99.90
14487;DHT22;7329;50.866;4.366;2022-07-22T09:08:21;23.90;99.90
14487;DHT22;7329;50.866;4.366;2022-07-22T09:10:23;23.90;99.90
14487;DHT22;7329;50.866;4.366;2022-07-22T09:12:26;23.90;99.90
14487;DHT22;7329;50.866;4.366;2022-07-22T09:14:43;24.00;99.90
14487;DHT22;7329;50.866;4.366;2022-07-22T09:16:47;24.00;99.90
14487;DHT22;7329;50.866;4.366;2022-07-22T09:18:51;24.00;99.90
14487;DHT22;7329;50.866;4.366;2022-07-22T09:20:58;24.00;99.90
14487;DHT22;7329;50.866;4.366;2022-07-22T09:23:01;24.10;99.90
14487;DHT22;7329;50.866;4.366;2022-07-22T09:25:34;24.00;99.90
14487;DHT22;7329;50.866;4.366;2022-07-22T09:27:36;24.10;99.90
14487;DHT22;7329;50.866;4.366;2022-07-22T09:29:43;24.10;99.90
14487;DHT22;7329;50.866;4.366;2022-07-22T09:31:51;24.10;99.90
14487;DHT22;7329;50.866;4.366;2022-07-22T09:33:54;24.10;99.90
14487;DHT22;7329;50.866;4.366;2022-07-22T09:36:02;24.10;99.90
14487;DHT22;7329;50.866;4.366;2022-07-22T09:38:06;24.10;99.90
14487;DHT22;7329;50.866;4.366;2022-07-22T09:40:15;24.10;99.90
14487;DHT22;7329;50.866;4.366;2022-07-22T09:42:17;24.10;99.90
14487;DHT22;7329;50.866;4.366;2022-07-22T09:44:21;24.20;99.90
14487;DHT22;7329;50.866;4.366;2022-07-22T09:46:35;24.20;99.90
14487;DHT22;7329;50.866;4.366;2022-07-22T09:48:39;24.20;99.90
14487;DHT22;7329;50.866;4.366;2022-07-22T09:50:41;24.20;99.90
14487;DHT22;7329;50.866;4.366;2022-07-22T09:52:44;24.20;99.90
14487;DHT22;7329;50.866;4.366;2022-07-22T09:54:47;24.20;99.90
14487;DHT22;7329;50.866;4.366;2022-07-22T09:56:49;24.20;99.90
14487;DHT22;7329;50.866;4.366;2022-07-22T09:58:51;24.20;99.90
14487;DHT22;7329;50.866;4.366;2022-07-22T10:00:56;24.20;99.90
14487;DHT22;7329;50.866;4.366;2022-07-22T10:03:02;24.20;99.90
14487;DHT22;7329;50.866;4.366;2022-07-22T10:05:06;24.20;99.90
14487;DHT22;7329;50.866;4.366;2022-07-22T10:07:10;24.20;99.90
14487;DHT22;7329;50.866;4.366;2022-07-22T10:09:14;24.20;99.90
14487;DHT22;7329;50.866;4.366;2022-07-22T10:11:16;24.20;99.90
14487;DHT22;7329;50.866;4.366;2022-07-22T10:13:19;24.20;99.90
14487;DHT22;7329;50.866;4.366;2022-07-22T10:15:23;24.20;99.90
14487;DHT22;7329;50.866;4.366;2022-07-22T10:17:25;24.20;99.90
14487;DHT22;7329;50.866;4.366;2022-07-22T10:19:29;24.20;99.90
14487;DHT22;7329;50.866;4.366;2022-07-22T10:21:33;24.30;99.90
14487;DHT22;7329;50.866;4.366;2022-07-22T10:23:36;24.20;99.90
14487;DHT22;7329;50.866;4.366;2022-07-22T10:26:00;24.20;99.90
14487;DHT22;7329;50.866;4.366;2022-07-22T10:28:04;24.20;99.90
14487;DHT22;7329;50.866;4.366;2022-07-22T10:30:09;24.20;99.90
14487;DHT22;7329;50.866;4.366;2022-07-22T10:32:24;24.20;99.90
14487;DHT22;7329;50.866;4.366;2022-07-22T10:34:29;24.20;99.90
14487;DHT22;7329;50.866;4.366;2022-07-22T10:36:39;24.30;99.90
14487;DHT22;7329;50.866;4.366;2022-07-22T10:39:03;24.30;99.90
14487;DHT22;7329;50.866;4.366;2022-07-22T10:41:06;24.30;99.90
14487;DHT22;7329;50.866;4.366;2022-07-22T10:43:12;24.30;99.90
14487;DHT22;7329;50.866;4.366;2022-07-22T10:45:15;24.30;99.90
14487;DHT22;7329;50.866;4.366;2022-07-22T10:47:54;24.40;99.90
14487;DHT22;7329;50.866;4.366;2022-07-22T10:50:39;24.40;99.90
14487;DHT22;7329;50.866;4.366;2022-07-22T10:52:46;24.30;99.90
14487;DHT22;7329;50.866;4.366;2022-07-22T10:55:17;24.30;99.90
14487;DHT22;7329;50.866;4.366;2022-07-22T10:57:29;24.40;99.90
14487;DHT22;7329;50.866;4.366;2022-07-22T10:59:32;24.40;99.90
14487;DHT22;7329;50.866;4.366;2022-07-22T11:01:35;24.40;99.90
14487;DHT22;7329;50.866;4.366;2022-07-22T11:03:39;24.40;99.90
14487;DHT22;7329;50.866;4.366;2022-07-22T11:05:43;24.40;99.90
14487;DHT22;7329;50.866;4.366;2022-07-22T11:07:47;24.40;99.90
14487;DHT22;7329;50.866;4.366;2022-07-22T11:09:49;24.40;99.90
14487;DHT22;7329;50.866;4.366;2022-07-22T11:11:53;24.40;99.90
14487;DHT22;7329;50.866;4.366;2022-07-22T11:13:55;24.40;99.90
14487;DHT22;7329;50.866;4.366;2022-07-22T11:16:13;24.40;99.90
14487;DHT22;7329;50.866;4.366;2022-07-22T11:18:16;24.40;99.90
14487;DHT22;7329;50.866;4.366;2022-07-22T11:20:18;24.40;99.90
14487;DHT22;7329;50.866;4.366;2022-07-22T11:22:22;24.40;99.90
14487;DHT22;7329;50.866;4.366;2022-07-22T11:24:25;24.50;99.90
14487;DHT22;7329;50.866;4.366;2022-07-22T11:26:34;24.40;99.90
14487;DHT22;7329;50.866;4.366;2022-07-22T11:28:39;24.40;99.90
14487;DHT22;7329;50.866;4.366;2022-07-22T11:30:42;24.40;99.90
14487;DHT22;7329;50.866;4.366;2022-07-22T11:32:44;24.40;99.90
14487;DHT22;7329;50.866;4.366;2022-07-22T11:34:46;24.50;99.90
14487;DHT22;7329;50.866;4.366;2022-07-22T11:36:49;24.50;99.90
14487;DHT22;7329;50.866;4.366;2022-07-22T11:38:54;24.40;99.90
14487;DHT22;7329;50.866;4.366;2022-07-22T11:40:59;24.50;99.90
14487;DHT22;7329;50.866;4.366;2022-07-22T11:43:02;24.50;99.90
14487;DHT22;7329;50.866;4.366;2022-07-22T11:45:05;24.50;99.90
14487;DHT22;7329;50.866;4.366;2022-07-22T11:47:09;24.50;99.90
14487;DHT22;7329;50.866;4.366;2022-07-22T11:49:13;24.50;99.90
14487;DHT22;7329;50.866;4.366;2022-07-22T11:51:16;24.50;99.90
14487;DHT22;7329;50.866;4.366;2022-07-22T11:53:18;24.50;99.90
14487;DHT22;7329;50.866;4.366;2022-07-22T11:55:22;24.50;99.90
14487;DHT22;7329;50.866;4.366;2022-07-22T11:57:25;24.50;99.90
14487;DHT22;7329;50.866;4.366;2022-07-22T11:59:27;24.50;99.90
14487;DHT22;7329;50.866;4.366;2022-07-22T12:01:29;24.50;99.90
14487;DHT22;7329;50.866;4.366;2022-07-22T12:03:33;24.50;99.90
14487;DHT22;7329;50.866;4.366;2022-07-22T12:05:36;24.50;99.90
14487;DHT22;7329;50.866;4.366;2022-07-22T12:07:38;24.50;99.90
14487;DHT22;7329;50.866;4.366;2022-07-22T12:09:41;24.50;99.90
14487;DHT22;7329;50.866;4.366;2022-07-22T12:11:46;24.50;99.90
14487;DHT22;7329;50.866;4.366;2022-07-22T12:13:50;24.50;99.90
14487;DHT22;7329;50.866;4.366;2022-07-22T12:15:53;24.50;99.90
14487;DHT22;7329;50.866;4.366;2022-07-22T12:18:14;24.50;99.90
14487;DHT22;7329;50.866;4.366;2022-07-22T12:20:17;24.60;99.90
14487;DHT22;7329;50.866;4.366;2022-07-22T12:22:20;24.50;99.90
14487;DHT22;7329;50.866;4.366;2022-07-22T12:24:31;24.60;99.90
14487;DHT22;7329;50.866;4.366;2022-07-22T12:26:40;24.50;99.90
14487;DHT22;7329;50.866;4.366;2022-07-22T12:28:45;24.50;99.90
14487;DHT22;7329;50.866;4.366;2022-07-22T12:30:48;24.50;99.90
14487;DHT22;7329;50.866;4.366;2022-07-22T12:32:51;24.50;99.90
14487;DHT22;7329;50.866;4.366;2022-07-22T12:34:56;24.60;99.90
14487;DHT22;7329;50.866;4.366;2022-07-22T12:36:59;24.50;99.90
14487;DHT22;7329;50.866;4.366;2022-07-22T12:39:14;24.50;99.90
14487;DHT22;7329;50.866;4.366;2022-07-22T12:41:27;24.50;99.90
14487;DHT22;7329;50.866;4.366;2022-07-22T12:43:30;24.60;99.90
14487;DHT22;7329;50.866;4.366;2022-07-22T12:45:35;24.60;99.90
14487;DHT22;7329;50.866;4.366;2022-07-22T12:47:43;24.50;99.90
14487;DHT22;7329;50.866;4.366;2022-07-22T12:49:46;24.60;99.90
14487;DHT22;7329;50.866;4.366;2022-07-22T12:52:08;24.50;99.90
14487;DHT22;7329;50.866;4.366;2022-07-22T12:54:11;24.60;99.90
14487;DHT22;7329;50.866;4.366;2022-07-22T12:56:14;24.60;99.90
14487;DHT22;7329;50.866;4.366;2022-07-22T12:58:16;24.50;99.90
14487;DHT22;7329;50.866;4.366;2022-07-22T13:00:20;24.50;99.90
14487;DHT22;7329;50.866;4.366;2022-07-22T13:02:25;24.50;99.90
14487;DHT22;7329;50.866;4.366;2022-07-22T13:04:27;24.50;99.90
14487;DHT22;7329;50.866;4.366;2022-07-22T13:06:30;24.50;99.90
14487;DHT22;7329;50.866;4.366;2022-07-22T13:08:32;24.60;99.90
14487;DHT22;7329;50.866;4.366;2022-07-22T13:10:34;24.50;99.90
14487;DHT22;7329;50.866;4.366;2022-07-22T13:12:37;24.50;99.90